Time;durP1;ratioP1;P1;durP2;ratioP2;P2;SDS_P1;SDS_P2;PMS_P1;PMS_P2;Temp;Humidity;BMP_temperature;BMP_pressure;BME280_temperature;BME280_humidity;BME280_pressure;Samples;Min_cycle;Max_cycle;Signal;HPM_P1;HPM_P2
2022/06/22 00:01:30;;;;;;;4.97;2.30;;;16.30;99.90;;;;;;5111138;28;20041;-66
2022/06/22 00:03:59;;;;;;;6.07;2.63;;;16.20;99.90;;;;;;5110764;28;20044;-65
2022/06/22 00:06:37;;;;;;;9.13;2.30;;;16.20;99.90;;;;;;5110695;28;20020;-65
2022/06/22 00:09:04;;;;;;;4.05;1.90;;;16.10;99.90;;;;;;5109479;28;20028;-65
2022/06/22 00:11:30;;;;;;;7.05;2.15;;;16.10;99.90;;;;;;5110708;28;20069;-65
2022/06/22 00:13:59;;;;;;;6.85;2.50;;;16.10;99.90;;;;;;5110606;28;20020;-66
2022/06/22 00:16:33;;;;;;;5.90;2.10;;;16.10;99.90;;;;;;5109683;28;20031;-66
2022/06/22 00:18:59;;;;;;;5.95;2.25;;;16.10;99.90;;;;;;5110790;28;20024;-66
2022/06/22 00:21:33;;;;;;;6.07;2.30;;;16.10;99.90;;;;;;5110772;28;20028;-65
2022/06/22 00:24:04;;;;;;;4.20;2.25;;;16.10;99.90;;;;;;5110464;28;20032;-66
2022/06/22 00:26:34;;;;;;;8.63;2.95;;;16.00;99.90;;;;;;5110344;28;20031;-65
2022/06/22 00:29:20;;;;;;;7.35;2.67;;;16.00;99.90;;;;;;5110643;28;20028;-66
2022/06/22 00:34:30;;;;;;;5.63;2.17;;;16.00;99.90;;;;;;5152375;27;20859;-65
2022/06/22 00:37:11;;;;;;;5.68;2.72;;;16.00;99.90;;;;;;5152572;27;20060;-65
2022/06/22 00:39:42;;;;;;;3.95;2.40;;;15.90;99.90;;;;;;5152496;27;20420;-65
2022/06/22 00:45:04;;;;;;;5.20;2.20;;;15.90;99.90;;;;;;5111234;27;20380;-65
2022/06/22 00:47:38;;;;;;;7.25;2.88;;;15.90;99.90;;;;;;5111040;28;20020;-65
2022/06/22 00:50:16;;;;;;;8.75;3.20;;;15.80;99.90;;;;;;5111306;28;20035;-65
2022/06/22 00:53:05;;;;;;;6.47;2.70;;;15.80;99.90;;;;;;5110948;28;20043;-65
2022/06/22 00:55:35;;;;;;;8.75;2.75;;;15.80;99.90;;;;;;5111149;28;20028;-65
2022/06/22 00:58:13;;;;;;;6.95;2.85;;;15.80;99.90;;;;;;5111131;28;20390;-65
2022/06/22 01:00:42;;;;;;;5.30;2.67;;;15.90;99.90;;;;;;5110770;28;20032;-65
2022/06/22 01:03:33;;;;;;;5.47;2.28;;;16.00;99.90;;;;;;5110999;28;20059;-65
2022/06/22 01:06:07;;;;;;;5.53;2.00;;;16.10;99.90;;;;;;5110640;28;20094;-65
2022/06/22 01:08:46;;;;;;;5.95;2.20;;;16.30;99.90;;;;;;5110917;28;20028;-65
2022/06/22 01:14:37;;;;;;;9.02;2.63;;;16.50;99.90;;;;;;5110400;28;20031;-65
2022/06/22 01:17:05;;;;;;;7.68;2.40;;;16.50;99.90;;;;;;5110547;28;20031;-65
2022/06/22 01:19:56;;;;;;;6.50;2.72;;;16.40;99.90;;;;;;5110449;28;20085;-65
2022/06/22 01:22:59;;;;;;;5.10;2.35;;;16.40;99.90;;;;;;5110575;28;20035;-65
2022/06/22 01:25:52;;;;;;;5.65;2.50;;;16.30;99.90;;;;;;5110414;28;20019;-65
2022/06/22 01:28:18;;;;;;;7.00;2.78;;;16.30;99.90;;;;;;5110150;28;20035;-65
2022/06/22 01:30:49;;;;;;;3.97;2.30;;;16.30;99.90;;;;;;5110363;28;20077;-65
2022/06/22 01:33:24;;;;;;;6.28;2.30;;;16.30;99.90;;;;;;5110315;28;20502;-65
2022/06/22 01:35:56;;;;;;;5.88;2.78;;;16.30;99.90;;;;;;5110408;28;20027;-65
2022/06/22 01:38:25;;;;;;;6.95;2.58;;;16.20;99.90;;;;;;5110350;28;20469;-65
2022/06/22 01:41:02;;;;;;;5.43;2.42;;;16.20;99.90;;;;;;5110288;28;20397;-65
2022/06/22 01:43:35;;;;;;;5.63;2.22;;;16.20;99.90;;;;;;5108701;28;20052;-65
2022/06/22 01:46:14;;;;;;;6.95;2.40;;;16.20;99.90;;;;;;5110183;28;20023;-65
2022/06/22 01:48:48;;;;;;;5.70;2.50;;;16.20;99.90;;;;;;5109840;28;20022;-65
2022/06/22 01:51:24;;;;;;;5.60;2.75;;;16.20;99.90;;;;;;5108719;28;20485;-65
2022/06/22 01:53:56;;;;;;;5.07;2.80;;;16.20;99.90;;;;;;5109661;28;20080;-65
2022/06/22 01:56:37;;;;;;;8.77;2.55;;;16.20;99.90;;;;;;5095944;28;20096;-65
2022/06/22 02:02:13;;;;;;;5.93;2.72;;;16.10;99.90;;;;;;5111256;27;20434;-65
2022/06/22 02:05:02;;;;;;;6.45;3.20;;;15.90;99.90;;;;;;5111028;28;20497;-64
2022/06/22 02:07:46;;;;;;;6.15;2.63;;;15.80;99.90;;;;;;5110968;28;20065;-64
2022/06/22 02:10:18;;;;;;;;;;;15.70;99.90;;;;;;5111372;28;20028;-65
2022/06/22 02:12:55;;;;;;;7.18;2.80;;;15.70;99.90;;;;;;5111203;28;19904;-65
2022/06/22 02:15:31;;;;;;;6.85;2.35;;;15.50;99.90;;;;;;5111107;28;20028;-65
2022/06/22 02:17:57;;;;;;;7.88;2.97;;;15.40;99.90;;;;;;5111077;28;20058;-64
2022/06/22 02:20:30;;;;;;;6.78;2.80;;;15.30;99.90;;;;;;5110700;28;20485;-65
2022/06/22 02:22:58;;;;;;;;;;;15.30;99.90;;;;;;5111425;28;20107;-64
2022/06/22 02:25:26;;;;;;;7.28;3.03;;;15.30;99.90;;;;;;5110741;28;20418;-64
2022/06/22 02:27:52;;;;;;;5.95;2.92;;;15.20;99.90;;;;;;5110722;28;20048;-64
2022/06/22 02:30:18;;;;;;;7.45;2.90;;;15.20;99.90;;;;;;5110860;28;20386;-64
2022/06/22 02:32:45;;;;;;;7.03;3.60;;;15.20;99.90;;;;;;5110520;28;20073;-65
2022/06/22 02:35:13;;;;;;;7.78;3.15;;;15.10;99.90;;;;;;5110714;28;20053;-65
2022/06/22 02:37:42;;;;;;;8.82;3.15;;;15.00;99.90;;;;;;5110715;28;20080;-64
2022/06/22 02:40:14;;;;;;;9.02;3.35;;;15.00;99.90;;;;;;5110565;28;20474;-65
2022/06/22 02:45:26;;;;;;;6.90;3.28;;;14.70;99.90;;;;;;5110111;28;20070;-64
2022/06/22 02:48:18;;;;;;;8.70;3.33;;;14.60;99.90;;;;;;5110301;28;20020;-65
2022/06/22 02:51:09;;;;;;;4.40;3.42;;;14.50;99.90;;;;;;5110449;28;20028;-65
2022/06/22 02:53:39;;;;;;;7.28;3.40;;;14.40;99.90;;;;;;5110011;28;20047;-64
2022/06/22 02:56:11;;;;;;;6.38;3.10;;;14.30;99.90;;;;;;5110357;28;20039;-65
2022/06/22 02:58:38;;;;;;;5.82;2.90;;;14.20;99.90;;;;;;5110277;28;20032;-65
2022/06/22 03:01:12;;;;;;;5.72;3.45;;;14.10;99.90;;;;;;5109735;28;20044;-65
2022/06/22 03:03:40;;;;;;;6.13;3.33;;;14.00;99.90;;;;;;5110200;28;20016;-64
2022/06/22 03:06:10;;;;;;;6.82;3.53;;;13.90;99.90;;;;;;5109923;28;20016;-65
2022/06/22 03:08:36;;;;;;;8.25;3.42;;;13.90;99.90;;;;;;5108614;28;20024;-64
2022/06/22 03:11:06;;;;;;;7.45;3.40;;;13.80;99.90;;;;;;5108436;28;20024;-64
2022/06/22 03:13:40;;;;;;;8.40;4.13;;;13.70;99.90;;;;;;5095943;28;20035;-64
2022/06/22 03:16:08;;;;;;;5.57;3.45;;;;;;;;;;5096383;28;20140;-64
2022/06/22 03:18:35;;;;;;;8.95;3.70;;;;;;;;;;5096093;28;20032;-64
2022/06/22 03:21:06;;;;;;;7.15;3.80;;;;;;;;;;5095972;28;20119;-64
2022/06/22 03:23:52;;;;;;;8.68;4.55;;;;;;;;;;5096308;28;20040;-64
2022/06/22 03:26:20;;;;;;;7.65;4.13;;;;;;;;;;5095897;28;20103;-64
2022/06/22 03:28:50;;;;;;;9.40;4.57;;;;;;;;;;5095927;28;20103;-64
2022/06/22 03:31:22;;;;;;;9.65;4.03;;;;;;;;;;5095937;28;20547;-64
2022/06/22 03:33:51;;;;;;;6.22;4.20;;;;;;;;;;5095920;28;20028;-64
2022/06/22 03:36:19;;;;;;;9.50;4.70;;;;;;;;;;5096033;28;20501;-64
2022/06/22 03:38:48;;;;;;;9.40;4.90;;;;;;;;;;5095766;28;20024;-64
2022/06/22 03:41:17;;;;;;;8.70;4.90;;;;;;;;;;5095817;28;20524;-64
2022/06/22 03:43:46;;;;;;;10.63;4.82;;;;;;;;;;5095592;28;20020;-64
2022/06/22 03:46:32;;;;;;;9.80;4.90;;;;;;;;;;5095815;28;20055;-64
2022/06/22 03:49:03;;;;;;;10.63;5.45;;;;;;;;;;5095382;28;20028;-64
2022/06/22 03:51:32;;;;;;;10.15;5.57;;;;;;;;;;5095522;28;20490;-65
2022/06/22 03:54:07;;;;;;;10.50;5.55;;;;;;;;;;5095657;28;20486;-64
2022/06/22 03:56:36;;;;;;;9.65;5.57;;;;;;;;;;5095605;28;20482;-64
2022/06/22 03:59:03;;;;;;;11.50;5.10;;;;;;;;;;5095583;28;20485;-64
2022/06/22 04:01:30;;;;;;;8.75;5.70;;;;;;;;;;5094977;28;20101;-64
2022/06/22 04:03:56;;;;;;;9.57;4.60;;;;;;;;;;5095491;28;20016;-64
2022/06/22 04:06:31;;;;;;;6.95;4.57;;;;;;;;;;5095501;28;20362;-64
2022/06/22 04:08:57;;;;;;;4.75;4.25;;;;;;;;;;5095405;28;20095;-65
2022/06/22 04:11:43;;;;;;;9.23;4.78;;;;;;;;;;5093793;28;20528;-64
2022/06/22 04:14:16;;;;;;;8.07;4.80;;;;;;;;;;5094950;28;20028;-64
2022/06/22 04:16:44;;;;;;;5.47;4.22;;;;;;;;;;5095284;28;20478;-64
2022/06/22 04:19:14;;;;;;;8.00;4.47;;;;;;;;;;5094897;28;20126;-64
2022/06/22 04:21:43;;;;;;;8.77;5.00;;;;;;;;;;5095038;28;20074;-64
2022/06/22 04:24:13;;;;;;;9.43;5.20;;;;;;;;;;5094100;28;20544;-65
2022/06/22 04:26:42;;;;;;;8.95;5.88;;;;;;;;;;5095022;28;20047;-64
2022/06/22 04:29:15;;;;;;;14.05;5.78;;;;;;;;;;5094996;28;20024;-64
2022/06/22 04:31:46;;;;;;;12.60;5.60;;;;;;;;;;5094935;28;20382;-64
2022/06/22 04:34:17;;;;;;;8.10;5.40;;;;;;;;;;5094824;28;20382;-64
2022/06/22 04:36:45;;;;;;;9.55;4.30;;;;;;;;;;5094589;28;20024;-65
2022/06/22 04:39:20;;;;;;;9.13;4.53;;;17.00;99.90;;;;;;5094544;28;20089;-65
2022/06/22 04:41:48;;;;;;;7.50;3.88;;;17.50;99.90;;;;;;5095058;28;20477;-65
2022/06/22 04:44:18;;;;;;;6.35;3.67;;;18.90;99.90;;;;;;5094651;28;20502;-66
2022/06/22 04:46:47;;;;;;;6.97;3.17;;;20.70;99.90;;;;;;5094359;28;20047;-65
2022/06/22 04:49:42;;;;;;;6.70;3.38;;;22.50;99.90;;;;;;5094566;28;20027;-65
2022/06/22 04:52:17;;;;;;;7.40;3.22;;;23.40;99.30;;;;;;5094181;28;20398;-66
2022/06/22 04:54:44;;;;;;;5.57;3.72;;;23.90;96.90;;;;;;5094216;28;20020;-66
2022/06/22 04:57:31;;;;;;;7.15;3.35;;;24.80;92.60;;;;;;5094412;28;20028;-66
2022/06/22 05:00:00;;;;;;;4.45;3.25;;;24.50;93.00;;;;;;5094053;28;20456;-66
2022/06/22 05:02:28;;;;;;;6.65;3.22;;;24.20;92.30;;;;;;5094345;28;20024;-66
2022/06/22 05:05:01;;;;;;;8.13;3.53;;;25.00;91.50;;;;;;5094234;28;20024;-66
2022/06/22 05:07:45;;;;;;;;;;;24.50;90.80;;;;;;5094475;28;20046;-66
2022/06/22 05:10:40;;;;;;;8.02;3.10;;;24.60;91.20;;;;;;5094219;28;19910;-66
2022/06/22 05:13:15;;;;;;;5.07;3.00;;;25.40;90.30;;;;;;5093794;28;20028;-66
2022/06/22 05:15:44;;;;;;;6.10;3.50;;;25.00;88.30;;;;;;5094103;28;20234;-65
2022/06/22 05:18:14;;;;;;;5.93;2.70;;;25.40;88.90;;;;;;5094044;28;20110;-65
2022/06/22 05:21:10;;;;;;;5.22;2.80;;;26.00;86.60;;;;;;5093686;28;20024;-66
2022/06/22 05:23:36;;;;;;;5.63;3.17;;;25.90;84.90;;;;;;5093706;28;20028;-65
2022/06/22 05:26:07;;;;;;;8.23;3.20;;;25.40;85.10;;;;;;5093891;28;20073;-66
2022/06/22 05:28:41;;;;;;;6.15;3.00;;;24.60;88.30;;;;;;5093645;28;20102;-66
2022/06/22 05:31:11;;;;;;;5.45;3.13;;;25.40;87.80;;;;;;5093630;28;20032;-65
2022/06/22 05:33:40;;;;;;;8.40;3.30;;;25.80;86.30;;;;;;5093561;28;20024;-66
2022/06/22 05:36:10;;;;;;;8.00;3.10;;;26.00;84.90;;;;;;5093267;28;20548;-66
2022/06/22 05:38:42;;;;;;;6.95;3.42;;;26.90;83.00;;;;;;5093724;28;20072;-64
2022/06/22 05:41:09;;;;;;;6.70;3.20;;;27.90;79.40;;;;;;5093632;28;20081;-66
2022/06/22 05:43:38;;;;;;;8.77;3.30;;;27.10;78.30;;;;;;5093433;28;20470;-66
2022/06/22 05:46:05;;;;;;;6.30;2.83;;;27.80;77.70;;;;;;5092115;28;20402;-66
2022/06/22 05:48:34;;;;;;;7.32;3.00;;;28.10;74.50;;;;;;5093523;28;20054;-66
2022/06/22 05:51:10;;;;;;;7.25;3.15;;;27.00;77.00;;;;;;5093570;28;20028;-65
2022/06/22 05:53:47;;;;;;;5.25;3.30;;;26.70;78.00;;;;;;5093308;28;20012;-66
2022/06/22 05:56:42;;;;;;;6.32;3.22;;;27.50;77.10;;;;;;5093487;28;20024;-65
2022/06/22 05:59:15;;;;;;;5.20;3.53;;;27.40;76.90;;;;;;5093794;28;20024;-65
2022/06/22 06:02:04;;;;;;;7.70;3.40;;;26.90;76.30;;;;;;5095777;28;20036;-66
2022/06/22 06:04:39;;;;;;;5.93;3.63;;;27.10;76.40;;;;;;5092621;28;20039;-65
2022/06/22 06:07:14;;;;;;;6.28;2.80;;;27.90;75.10;;;;;;5091441;28;20024;-66
2022/06/22 06:09:40;;;;;;;5.82;2.95;;;28.00;73.60;;;;;;5093641;28;20096;-65
2022/06/22 06:12:14;;;;;;;6.28;3.22;;;27.60;71.00;;;;;;5093118;28;20032;-65
2022/06/22 06:14:44;;;;;;;5.30;2.92;;;27.80;70.50;;;;;;5093066;28;20020;-66
2022/06/22 06:17:16;;;;;;;7.68;3.45;;;28.10;72.40;;;;;;5092501;28;20529;-66
2022/06/22 06:19:48;;;;;;;7.70;3.30;;;28.50;68.70;;;;;;5097281;28;20076;-67
2022/06/22 06:22:14;;;;;;;7.63;3.33;;;29.10;67.50;;;;;;5090161;28;20039;-64
2022/06/22 06:27:35;;;;;;;5.50;3.30;;;29.90;64.20;;;;;;5091432;28;20087;-64
2022/06/22 06:30:15;;;;;;;6.65;3.17;;;28.80;64.80;;;;;;5090699;28;20035;-64
2022/06/22 06:33:12;;;;;;;5.05;2.95;;;28.80;66.80;;;;;;5093043;28;20108;-64
2022/06/22 06:35:45;;;;;;;4.50;2.70;;;29.40;65.70;;;;;;5086831;28;20435;-65
2022/06/22 06:38:39;;;;;;;6.55;3.22;;;29.30;66.40;;;;;;5089263;28;20423;-64
2022/06/22 06:44:02;;;;;;;5.72;3.28;;;28.50;67.50;;;;;;5110550;27;20947;-66
2022/06/22 06:46:38;;;;;;;8.30;3.03;;;27.90;68.00;;;;;;5093919;28;20485;-65
2022/06/22 06:49:25;;;;;;;6.35;3.17;;;27.70;68.60;;;;;;5090756;28;20082;-66
2022/06/22 06:51:59;;;;;;;7.07;3.10;;;28.10;69.30;;;;;;5090771;28;20443;-65
2022/06/22 06:54:32;;;;;;;7.10;2.97;;;28.10;67.80;;;;;;5090475;28;20016;-66
2022/06/22 06:57:04;;;;;;;7.32;3.05;;;29.80;66.40;;;;;;5090628;28;20076;-66
2022/06/22 06:59:31;;;;;;;6.75;2.88;;;29.90;64.20;;;;;;5076985;28;20083;-66
2022/06/22 07:02:04;;;;;;;8.30;2.80;;;29.40;63.90;;;;;;5070015;28;20128;-66
2022/06/22 07:04:34;;;;;;;3.65;3.25;;;29.80;64.10;;;;;;5076431;28;20474;-66
2022/06/22 07:07:20;;;;;;;5.00;3.20;;;30.20;61.70;;;;;;5099749;28;20044;-66
2022/06/22 07:09:49;;;;;;;5.55;3.30;;;30.20;61.60;;;;;;5099352;28;20031;-66
2022/06/22 07:12:36;;;;;;;4.28;3.08;;;30.10;62.50;;;;;;5095301;28;20024;-64
2022/06/22 07:15:05;;;;;;;6.80;3.33;;;29.00;63.20;;;;;;5087210;28;20429;-64
2022/06/22 07:17:32;;;;;;;8.15;3.08;;;29.90;63.70;;;;;;5089385;28;20426;-64
2022/06/22 07:20:05;;;;;;;6.20;3.67;;;31.20;61.50;;;;;;5089989;28;20419;-64
2022/06/22 07:22:43;;;;;;;4.60;2.92;;;31.30;58.80;;;;;;5085980;28;20027;-69
2022/06/22 07:25:35;;;;;;;5.25;3.15;;;31.10;60.30;;;;;;5081302;28;20028;-67
2022/06/22 07:28:15;;;;;;;3.38;2.70;;;30.50;59.90;;;;;;5087284;28;20082;-66
2022/06/22 07:30:48;;;;;;;4.40;2.50;;;30.20;60.50;;;;;;5089631;28;20067;-67
2022/06/22 07:33:31;;;;;;;5.68;2.85;;;30.50;60.50;;;;;;5089514;28;20070;-67
2022/06/22 07:36:04;;;;;;;4.07;2.50;;;30.30;58.80;;;;;;5082852;28;20103;-67
2022/06/22 07:41:22;;;;;;;4.70;2.60;;;30.10;59.10;;;;;;5110958;27;20306;-67
2022/06/22 07:43:55;;;;;;;6.30;2.60;;;29.70;59.70;;;;;;5110865;28;20478;-68
2022/06/22 07:46:45;;;;;;;5.40;2.38;;;29.80;60.00;;;;;;5110849;28;20433;-66
2022/06/22 07:51:57;;;;;;;5.70;2.50;;;31.10;58.20;;;;;;5070065;28;20418;-67
2022/06/22 07:54:44;;;;;;;6.93;2.42;;;31.30;57.20;;;;;;5052279;28;20035;-64
2022/06/22 07:57:19;;;;;;;4.97;2.33;;;31.20;58.20;;;;;;5070335;28;20033;-65
2022/06/22 07:59:52;;;;;;;5.47;2.35;;;31.60;56.30;;;;;;5069942;28;20416;-65
2022/06/22 08:02:21;;;;;;;5.22;2.45;;;31.20;55.30;;;;;;5069108;28;20071;-64
2022/06/22 08:05:10;;;;;;;4.50;2.03;;;31.20;57.10;;;;;;5068277;28;20027;-65
2022/06/22 08:07:46;;;;;;;4.13;1.73;;;31.70;55.90;;;;;;5069716;28;20495;-65
2022/06/22 08:10:19;;;;;;;5.95;2.05;;;31.70;55.30;;;;;;5070071;28;20412;-65
2022/06/22 08:13:01;;;;;;;3.92;1.67;;;32.10;54.10;;;;;;5069852;28;20056;-65
2022/06/22 08:15:30;;;;;;;3.53;1.80;;;32.30;53.00;;;;;;5067822;28;20029;-66
2022/06/22 08:17:58;;;;;;;8.88;2.30;;;32.90;53.20;;;;;;5065657;28;20036;-65
2022/06/22 08:20:29;;;;;;;6.10;2.20;;;31.70;52.60;;;;;;5069866;28;20055;-66
2022/06/22 08:22:57;;;;;;;7.03;2.28;;;31.30;54.30;;;;;;5068451;28;20081;-64
2022/06/22 08:25:23;;;;;;;5.10;2.22;;;30.10;55.60;;;;;;5069386;28;20116;-65
2022/06/22 08:27:50;;;;;;;3.88;1.80;;;30.40;56.20;;;;;;5069927;28;20081;-65
2022/06/22 08:30:16;;;;;;;4.47;2.03;;;31.50;54.50;;;;;;5067972;28;20031;-65
2022/06/22 08:32:49;;;;;;;3.60;2.47;;;31.30;55.20;;;;;;5069202;28;20086;-66
2022/06/22 08:35:38;;;;;;;4.38;2.58;;;31.30;55.30;;;;;;5063029;28;20043;-64
2022/06/22 08:38:26;;;;;;;5.00;2.15;;;30.20;55.80;;;;;;5049248;28;20017;-65
2022/06/22 08:41:03;;;;;;;6.07;2.25;;;31.20;55.30;;;;;;5056018;28;20029;-64
2022/06/22 08:43:53;;;;;;;3.75;1.90;;;29.40;55.80;;;;;;5050328;28;20044;-66
2022/06/22 08:46:58;;;;;;;5.13;1.60;;;30.20;53.70;;;;;;5051974;28;20484;-66
2022/06/22 08:49:38;;;;;;;7.90;1.90;;;30.80;52.10;;;;;;5068921;28;20044;-66
2022/06/22 08:55:11;;;;;;;4.15;1.92;;;29.90;54.60;;;;;;5101249;27;20109;-71
2022/06/22 08:58:17;;;;;;;4.93;1.80;;;31.40;51.30;;;;;;5103807;28;20032;-71
2022/06/22 09:01:09;;;;;;;7.38;2.20;;;31.70;52.70;;;;;;5076784;28;20025;-72
2022/06/22 09:04:11;;;;;;;4.22;2.08;;;32.30;51.70;;;;;;5069947;28;20025;-71
2022/06/22 09:07:08;;;;;;;4.40;1.75;;;31.80;52.40;;;;;;5102161;28;20402;-71
2022/06/22 09:10:05;;;;;;;4.15;1.83;;;31.20;52.40;;;;;;5069821;28;20518;-71
2022/06/22 09:12:59;;;;;;;7.75;1.70;;;31.10;52.50;;;;;;5069998;28;20441;-71
2022/06/22 09:15:55;;;;;;;4.88;1.98;;;31.60;51.10;;;;;;5068536;28;20525;-71
2022/06/22 09:19:00;;;;;;;2.65;1.83;;;31.00;53.50;;;;;;5068537;28;20028;-72
2022/06/22 09:22:05;;;;;;;5.60;2.10;;;31.00;53.50;;;;;;5074938;28;20024;-73
2022/06/22 09:25:01;;;;;;;6.78;1.92;;;31.50;53.00;;;;;;5095139;28;20393;-73
2022/06/22 09:27:43;;;;;;;4.72;2.20;;;31.30;53.50;;;;;;5089579;28;20493;-73
2022/06/22 09:30:49;;;;;;;3.95;1.70;;;30.90;53.10;;;;;;5107265;28;20463;-73
2022/06/22 09:33:47;;;;;;;3.13;1.73;;;31.40;51.00;;;;;;5069391;28;20036;-73
2022/06/22 09:36:28;;;;;;;5.85;2.03;;;31.90;50.50;;;;;;5082648;28;20107;-73
2022/06/22 09:39:22;;;;;;;4.20;2.00;;;32.20;50.10;;;;;;5105334;28;20145;-74
2022/06/22 09:42:05;;;;;;;;;;;32.60;51.00;;;;;;5092362;28;20077;-73
2022/06/22 09:44:40;;;;;;;;;;;31.80;51.30;;;;;;5090562;28;19908;-74
2022/06/22 09:47:46;;;;;;;4.57;1.75;;;32.50;51.40;;;;;;5087637;28;19940;-73
2022/06/22 09:50:38;;;;;;;4.53;1.75;;;32.90;52.20;;;;;;5089177;28;20095;-71
2022/06/22 09:53:43;;;;;;;8.23;2.15;;;32.20;50.90;;;;;;5091969;28;20039;-70
2022/06/22 09:56:23;;;;;;;3.45;1.83;;;32.20;49.70;;;;;;5067844;28;20445;-71
2022/06/22 10:00:15;;;;;;;4.18;2.00;;;31.80;50.70;;;;;;5087970;28;20017;-71
2022/06/22 10:02:31;;;;;;;3.90;2.20;;;32.00;51.30;;;;;;5090032;28;20033;-70
2022/06/22 10:08:20;;;;;;;3.65;1.75;;;31.40;52.10;;;;;;5066727;28;20735;-65
2022/06/22 10:11:03;;;;;;;7.70;2.35;;;32.00;51.80;;;;;;5053833;28;20060;-65
2022/06/22 10:14:03;;;;;;;4.30;1.80;;;32.60;49.60;;;;;;5030370;28;20076;-64
2022/06/22 10:16:40;;;;;;;4.55;1.80;;;31.80;49.30;;;;;;5030174;28;20065;-67
2022/06/22 10:19:33;;;;;;;3.95;1.70;;;32.10;51.00;;;;;;5029986;28;20379;-64
2022/06/22 10:22:15;;;;;;;3.57;1.70;;;32.10;50.90;;;;;;5029806;28;20034;-64
2022/06/22 10:25:18;;;;;;;2.50;1.50;;;32.80;49.00;;;;;;5030313;28;20441;-63
2022/06/22 10:28:18;;;;;;;4.50;1.92;;;32.30;51.40;;;;;;5029977;28;20101;-66
2022/06/22 10:30:58;;;;;;;4.13;2.00;;;32.60;49.50;;;;;;5030273;28;20519;-66
2022/06/22 10:34:03;;;;;;;4.35;1.67;;;33.00;48.70;;;;;;5011910;28;20116;-63
2022/06/22 10:37:00;;;;;;;3.33;1.70;;;33.10;47.20;;;;;;5029865;28;20052;-63
2022/06/22 10:48:45;;;;;;;3.33;2.03;;;33.00;49.10;;;;;;5110896;27;20438;-65
2022/06/22 10:51:47;;;;;;;5.55;1.90;;;31.90;50.70;;;;;;5093272;28;20032;-65
2022/06/22 10:54:39;;;;;;;6.03;2.28;;;31.30;51.80;;;;;;5090072;28;20483;-65
2022/06/22 10:57:25;;;;;;;5.00;2.20;;;30.70;53.50;;;;;;5106491;28;20028;-66
2022/06/22 11:00:30;;;;;;;2.95;1.85;;;30.40;54.70;;;;;;5106744;28;20505;-66
2022/06/22 11:03:36;;;;;;;4.47;2.30;;;29.90;53.30;;;;;;5110399;28;20085;-65
2022/06/22 11:06:30;;;;;;;8.98;2.30;;;29.80;52.60;;;;;;5110219;28;20394;-65
2022/06/22 11:09:15;;;;;;;5.63;2.63;;;29.60;54.40;;;;;;5110344;28;20016;-66
2022/06/22 11:11:56;;;;;;;3.80;2.40;;;29.30;55.30;;;;;;5110364;28;20107;-65
2022/06/22 11:14:50;;;;;;;7.97;2.40;;;29.30;55.60;;;;;;5110124;28;20026;-65
2022/06/22 11:20:28;;;;;;;5.20;2.30;;;28.60;55.70;;;;;;5069089;28;20812;-66
2022/06/22 11:23:00;;;;;;;5.82;2.30;;;28.40;55.60;;;;;;5030039;28;20065;-65
2022/06/22 11:32:22;;;;;;;2.85;2.20;;;28.30;56.50;;;;;;5029952;28;20045;-64
2022/06/22 11:35:14;;;;;;;4.57;2.30;;;28.50;57.00;;;;;;5029906;28;20036;-65
2022/06/22 11:40:56;;;;;;;6.82;2.00;;;27.90;57.20;;;;;;5090620;27;20435;-65
2022/06/22 11:46:33;;;;;;;4.75;2.17;;;28.70;56.40;;;;;;5146632;27;20631;-65
2022/06/22 11:52:31;;;;;;;4.78;2.50;;;28.10;55.30;;;;;;5090134;28;20408;-65
2022/06/22 11:55:20;;;;;;;7.68;1.98;;;28.00;55.30;;;;;;5090078;28;20025;-66
2022/06/22 11:58:25;;;;;;;6.53;1.60;;;28.00;55.60;;;;;;5090196;28;20107;-65
2022/06/22 12:01:20;;;;;;;6.25;1.80;;;28.30;55.90;;;;;;5089826;28;20058;-65
2022/06/22 12:04:26;;;;;;;4.90;1.90;;;28.50;56.20;;;;;;5090047;28;20111;-65
2022/06/22 12:07:28;;;;;;;6.88;1.85;;;29.00;55.80;;;;;;5090035;28;20034;-65
2022/06/22 12:10:18;;;;;;;5.95;1.52;;;28.00;54.10;;;;;;5090077;28;20074;-65
2022/06/22 12:16:06;;;;;;;4.40;2.10;;;28.30;55.30;;;;;;5110318;27;20384;-65
2022/06/22 12:18:52;;;;;;;3.78;1.77;;;28.60;54.00;;;;;;5110495;28;20044;-65
2022/06/22 12:21:44;;;;;;;7.53;2.17;;;28.60;53.40;;;;;;5110842;28;20382;-65
2022/06/22 12:24:35;;;;;;;6.10;2.10;;;28.20;53.90;;;;;;5110326;28;20106;-65
2022/06/22 12:27:26;;;;;;;6.55;2.17;;;27.50;52.70;;;;;;5110035;28;20419;-64
2022/06/22 12:30:11;;;;;;;5.03;1.83;;;27.60;55.20;;;;;;5110410;28;20095;-65
2022/06/22 12:35:54;;;;;;;4.93;1.63;;;27.90;52.00;;;;;;5049847;28;20890;-65
2022/06/22 12:38:40;;;;;;;5.10;1.70;;;28.50;53.00;;;;;;5050175;28;20049;-64
2022/06/22 12:41:38;;;;;;;5.68;1.80;;;28.00;51.80;;;;;;5050225;28;20099;-63
2022/06/22 12:47:43;;;;;;;4.15;1.90;;;28.20;51.50;;;;;;5069900;27;20457;-65
2022/06/22 12:50:48;;;;;;;4.55;1.75;;;28.10;51.40;;;;;;5068453;28;20033;-65
2022/06/22 12:53:20;;;;;;;4.40;1.80;;;28.30;52.50;;;;;;5069375;28;20128;-65
2022/06/22 12:55:53;;;;;;;3.45;1.60;;;28.30;52.20;;;;;;5069733;28;20040;-66
2022/06/22 12:58:26;;;;;;;5.97;1.70;;;28.40;51.40;;;;;;5078056;28;20431;-65
2022/06/22 13:00:55;;;;;;;4.57;1.73;;;28.70;54.20;;;;;;5070186;28;20037;-65
2022/06/22 13:03:28;;;;;;;5.03;1.90;;;28.40;51.60;;;;;;5069339;28;20031;-66
2022/06/22 13:05:55;;;;;;;6.60;2.20;;;28.40;52.40;;;;;;5070045;28;20475;-66
2022/06/22 13:08:24;;;;;;;4.00;1.77;;;28.80;52.00;;;;;;5068845;28;20120;-66
2022/06/22 13:10:56;;;;;;;3.78;1.60;;;28.80;51.40;;;;;;5068386;28;20031;-66
2022/06/22 13:13:32;;;;;;;4.13;1.60;;;28.80;52.60;;;;;;5066459;28;20035;-67
2022/06/22 13:16:06;;;;;;;3.45;1.60;;;28.90;51.80;;;;;;5050092;28;20040;-65
2022/06/22 13:18:58;;;;;;;3.60;1.50;;;28.80;50.50;;;;;;5057736;28;20391;-66
2022/06/22 13:21:37;;;;;;;2.80;1.52;;;28.70;51.10;;;;;;5068647;28;20025;-66
2022/06/22 13:24:31;;;;;;;7.10;1.90;;;28.40;50.70;;;;;;5068538;28;20123;-66
2022/06/22 13:27:36;;;;;;;7.05;1.90;;;28.40;51.50;;;;;;5070576;28;20379;-66
2022/06/22 13:30:23;;;;;;;4.07;1.83;;;28.50;50.30;;;;;;5064830;28;20086;-65
2022/06/22 13:33:17;;;;;;;3.10;1.35;;;28.60;51.00;;;;;;5071599;28;20021;-65
2022/06/22 13:35:48;;;;;;;5.65;1.73;;;28.40;51.40;;;;;;5068681;28;20037;-65
2022/06/22 13:42:07;;;;;;;3.42;1.48;;;28.40;50.20;;;;;;5090070;28;20409;-65
2022/06/22 13:45:00;;;;;;;2.22;1.40;;;28.60;50.80;;;;;;5077953;28;20028;-65
2022/06/22 13:47:53;;;;;;;4.32;2.05;;;28.70;51.40;;;;;;5087878;28;20036;-65
2022/06/22 13:51:29;;;;;;;5.43;2.13;;;28.70;50.70;;;;;;5088322;28;20032;-65
2022/06/22 13:54:27;;;;;;;5.15;1.92;;;28.40;51.60;;;;;;5075461;28;20074;-66
2022/06/22 13:57:33;;;;;;;2.35;1.58;;;28.40;51.20;;;;;;5089844;28;20028;-66
2022/06/22 14:03:11;;;;;;;4.00;1.95;;;28.30;51.90;;;;;;5118029;27;20453;-66
2022/06/22 14:11:37;;;;;;;2.45;1.45;;;28.40;50.90;;;;;;5101719;27;20463;-67
2022/06/22 14:14:25;;;;;;;2.72;1.58;;;28.50;51.80;;;;;;5108286;28;20031;-66
2022/06/22 14:22:23;;;;;;;5.00;1.65;;;28.30;51.90;;;;;;5070127;28;20908;-66
2022/06/22 14:24:50;;;;;;;2.97;1.52;;;28.60;51.70;;;;;;5037609;28;20063;-66
2022/06/22 14:27:49;;;;;;;5.45;1.90;;;28.60;50.70;;;;;;5049504;28;20112;-66
2022/06/22 14:33:43;;;;;;;3.20;1.52;;;28.00;51.10;;;;;;5110361;27;20412;-65
2022/06/22 14:36:35;;;;;;;5.05;1.70;;;28.00;51.10;;;;;;5092119;28;20433;-66
2022/06/22 14:39:32;;;;;;;4.72;2.13;;;28.00;50.80;;;;;;5090434;28;20095;-65
2022/06/22 14:42:05;;;;;;;2.38;1.33;;;28.30;50.70;;;;;;5102059;28;20061;-65
2022/06/22 14:44:45;;;;;;;4.78;1.50;;;28.20;49.70;;;;;;5093061;28;20029;-65
2022/06/22 14:47:20;;;;;;;3.60;1.23;;;28.30;49.80;;;;;;5103670;28;20019;-65
2022/06/22 14:49:53;;;;;;;3.83;1.60;;;28.20;49.60;;;;;;5110817;28;20114;-65
2022/06/22 14:52:45;;;;;;;3.22;1.50;;;28.30;50.20;;;;;;5109797;28;20036;-64
2022/06/22 14:55:38;;;;;;;3.60;1.40;;;28.50;50.50;;;;;;5069790;28;20099;-64
2022/06/22 14:58:33;;;;;;;3.50;1.85;;;28.60;50.60;;;;;;5109091;28;20028;-65
2022/06/22 15:01:18;;;;;;;4.95;1.70;;;28.80;50.00;;;;;;5108763;28;20081;-65
2022/06/22 15:04:08;;;;;;;3.20;1.50;;;28.70;49.40;;;;;;5110566;28;20020;-65
2022/06/22 15:07:14;;;;;;;7.05;1.88;;;28.90;49.40;;;;;;5091169;28;20031;-65
2022/06/22 15:09:51;;;;;;;4.75;1.50;;;28.90;49.70;;;;;;5102076;28;20397;-64
2022/06/22 15:12:56;;;;;;;5.53;1.75;;;28.80;48.90;;;;;;5090026;28;20031;-65
2022/06/22 15:18:11;;;;;;;4.72;1.65;;;28.80;49.40;;;;;;5111090;27;20544;-65
2022/06/22 15:20:49;;;;;;;3.92;1.60;;;28.60;50.10;;;;;;5110585;28;20062;-65
2022/06/22 15:23:31;;;;;;;3.22;1.70;;;28.60;49.30;;;;;;5111151;28;20016;-65
2022/06/22 15:26:17;;;;;;;4.45;1.65;;;28.70;48.70;;;;;;5110524;28;20032;-65
2022/06/22 15:31:48;;;;;;;3.33;1.58;;;28.60;49.50;;;;;;5070431;28;20357;-65
2022/06/22 15:34:39;;;;;;;4.35;1.50;;;28.60;49.10;;;;;;5070258;28;20051;-65
2022/06/22 15:37:16;;;;;;;5.03;1.40;;;28.70;49.00;;;;;;5068564;28;20021;-65
2022/06/22 15:40:10;;;;;;;1.83;1.50;;;28.80;49.50;;;;;;5070350;28;20028;-65